createdAt,value
2023-04-10T00:02:33.943Z,0
2023-04-10T00:08:53.828Z,0
2023-04-10T00:15:16.854Z,0
2023-04-10T00:21:36.806Z,0
2023-04-10T00:27:59.791Z,0
2023-04-10T00:34:19.836Z,0
2023-04-10T00:40:42.852Z,0
2023-04-10T00:47:02.779Z,0
2023-04-10T00:53:25.858Z,0
2023-04-10T00:59:45.757Z,0
2023-04-10T01:06:08.865Z,0
2023-04-10T01:12:28.809Z,0
2023-04-10T01:18:51.790Z,0
2023-04-10T01:25:11.914Z,0
2023-04-10T01:31:35.012Z,0
2023-04-10T01:37:54.839Z,0
2023-04-10T01:44:17.784Z,0
2023-04-10T01:50:37.809Z,0
2023-04-10T01:57:00.805Z,0
2023-04-10T02:03:20.909Z,0
2023-04-10T02:09:43.947Z,0
2023-04-10T02:16:04.258Z,0
2023-04-10T02:22:26.838Z,0
2023-04-10T02:28:46.787Z,0
2023-04-10T02:35:09.815Z,0
2023-04-10T02:41:29.845Z,0
2023-04-10T02:47:52.924Z,0
2023-04-10T02:54:12.774Z,0
2023-04-10T03:00:35.933Z,0
2023-04-10T03:06:55.844Z,0
2023-04-10T03:30:37.785Z,0
2023-04-10T03:37:00.752Z,0
2023-04-10T03:43:20.853Z,0
2023-04-10T03:49:43.816Z,0
2023-04-10T03:56:03.861Z,0
2023-04-10T04:02:26.841Z,0
2023-04-10T04:08:46.969Z,0
2023-04-10T04:15:09.871Z,0
2023-04-10T04:21:29.803Z,0
2023-04-10T04:27:54.021Z,0
2023-04-10T04:34:12.930Z,0
2023-04-10T04:40:35.800Z,0
2023-04-10T04:46:55.821Z,0
2023-04-10T04:53:18.860Z,0
2023-04-10T04:59:38.851Z,0
2023-04-10T05:06:01.820Z,0
2023-04-10T05:12:21.750Z,5.62
2023-04-10T05:18:44.793Z,5.62
2023-04-10T05:25:04.781Z,5.62
2023-04-10T05:31:27.890Z,11.25
2023-04-10T05:37:47.751Z,11.25
2023-04-10T05:44:10.872Z,16.88
2023-04-10T05:50:30.793Z,22.5
2023-04-10T05:56:53.743Z,22.5
2023-04-10T06:03:13.845Z,22.5
2023-04-10T06:09:36.866Z,16.88
2023-04-10T06:15:56.819Z,16.88
2023-04-10T06:22:19.814Z,16.88
2023-04-10T06:28:39.851Z,22.5
2023-04-10T06:35:02.734Z,22.5
2023-04-10T06:41:22.816Z,28.12
2023-04-10T06:47:45.789Z,28.12
2023-04-10T06:54:05.909Z,28.12
2023-04-10T07:00:28.888Z,33.75
2023-04-10T07:06:48.776Z,39.38
2023-04-10T07:13:11.824Z,39.38
2023-04-10T07:19:31.783Z,45
2023-04-10T07:25:54.792Z,50.62
2023-04-10T07:32:14.863Z,50.62
2023-04-10T07:38:37.779Z,61.88
2023-04-10T07:44:57.793Z,67.5
2023-04-10T07:51:20.768Z,67.5
2023-04-10T07:57:42.164Z,61.88
2023-04-10T08:04:05.465Z,56.25
2023-04-10T08:10:23.751Z,56.25
2023-04-10T08:16:46.873Z,61.88
2023-04-10T08:29:29.756Z,61.88
2023-04-10T08:52:36.276Z,84.38
2023-04-10T08:58:55.736Z,78.75
2023-04-10T09:05:18.844Z,84.38
2023-04-10T09:11:38.783Z,90
2023-04-10T09:18:01.864Z,90
2023-04-10T09:24:21.807Z,90
2023-04-10T09:30:44.783Z,95.62
2023-04-10T09:37:04.790Z,106.88
2023-04-10T09:43:27.767Z,101.25
2023-04-10T09:49:47.754Z,101.25
2023-04-10T09:56:10.753Z,95.62
2023-04-10T10:02:30.885Z,95.62
2023-04-10T10:08:53.883Z,106.88
2023-04-10T10:15:13.737Z,106.88
2023-04-10T10:21:36.778Z,101.25
2023-04-10T10:27:56.803Z,112.5
2023-04-10T10:34:19.740Z,106.88
2023-04-10T10:40:39.732Z,95.62
2023-04-10T10:47:02.810Z,123.75
2023-04-10T10:53:22.763Z,118.12
2023-04-10T10:59:45.768Z,123.75
2023-04-10T11:06:05.781Z,135
2023-04-10T11:12:28.762Z,123.75
2023-04-10T11:18:53.630Z,123.75
2023-04-10T11:25:11.850Z,129.38
2023-04-10T11:31:31.814Z,123.75
2023-04-10T11:37:54.748Z,129.38
2023-04-10T11:44:14.804Z,129.38
2023-04-10T11:50:37.754Z,123.75
2023-04-10T11:56:57.735Z,118.12
2023-04-10T12:03:20.980Z,118.12
2023-04-10T12:09:40.736Z,118.12
2023-04-10T12:16:03.763Z,118.12
2023-04-10T12:22:23.788Z,118.12
2023-04-10T12:28:46.738Z,123.75
2023-04-10T12:35:06.776Z,135
2023-04-10T12:41:29.816Z,123.75
2023-04-10T12:47:49.769Z,118.12
2023-04-10T12:54:12.780Z,151.88
2023-04-10T13:00:32.782Z,151.88
2023-04-10T13:06:55.778Z,157.5
2023-04-10T13:13:15.736Z,123.75
2023-04-10T13:19:38.779Z,106.88
2023-04-10T13:25:58.823Z,90
2023-04-10T13:32:21.737Z,84.38
2023-04-10T13:38:41.776Z,90
2023-04-10T13:45:04.743Z,78.75
2023-04-10T13:51:24.746Z,95.62
2023-04-10T13:57:47.829Z,101.25
2023-04-10T14:04:07.879Z,106.88
2023-04-10T14:10:30.778Z,129.38
2023-04-10T14:16:50.808Z,140.62
2023-04-10T14:32:42.733Z,84.38
2023-04-10T14:39:02.758Z,95.62
2023-04-10T14:45:25.741Z,101.25
2023-04-10T14:51:45.839Z,90
2023-04-10T14:58:08.742Z,84.38
2023-04-10T15:04:28.758Z,95.62
2023-04-10T15:10:51.800Z,95.62
2023-04-10T15:17:11.764Z,95.62
2023-04-10T15:23:34.781Z,101.25
2023-04-10T15:29:54.770Z,90
2023-04-10T15:36:17.750Z,67.5
2023-04-10T15:42:37.752Z,56.25
2023-04-10T15:49:00.779Z,56.25
2023-04-10T15:55:20.772Z,39.38
2023-04-10T16:01:43.802Z,28.12
2023-04-10T16:08:03.797Z,28.12
2023-04-10T16:14:26.800Z,22.5
2023-04-10T16:20:46.735Z,16.88
2023-04-10T16:27:09.826Z,16.88
2023-04-10T16:33:29.737Z,11.25
2023-04-10T16:39:52.777Z,5.62
2023-04-10T16:46:12.851Z,5.62
2023-04-10T16:52:35.733Z,5.62
2023-04-10T16:58:55.892Z,5.62
2023-04-10T17:05:18.764Z,5.62
2023-04-10T17:11:38.731Z,0
2023-04-10T17:18:01.840Z,0
2023-04-10T17:24:21.759Z,0
2023-04-10T17:30:44.843Z,0
2023-04-10T17:37:04.763Z,0
2023-04-10T17:43:27.800Z,0
2023-04-10T17:49:47.815Z,0
2023-04-10T17:56:10.744Z,0
2023-04-10T18:02:30.827Z,0
2023-04-10T18:08:53.917Z,0
2023-04-10T18:15:13.755Z,0
2023-04-10T18:21:36.835Z,0
2023-04-10T18:28:13.484Z,0
2023-04-10T18:34:19.778Z,0
2023-04-10T18:40:39.882Z,0
2023-04-10T18:47:04.584Z,0
2023-04-10T18:53:22.822Z,0
2023-04-10T18:59:45.834Z,0
2023-04-10T19:06:05.786Z,0
2023-04-10T19:12:28.815Z,0
2023-04-10T19:18:48.784Z,0
2023-04-10T19:25:11.776Z,0
2023-04-10T19:31:31.753Z,0
2023-04-10T19:37:54.827Z,0
2023-04-10T19:44:14.784Z,0
2023-04-10T19:50:37.763Z,0
2023-04-10T19:56:57.906Z,0
2023-04-10T20:13:07.616Z,0
2023-04-10T20:19:27.748Z,0
2023-04-10T20:25:50.767Z,0
2023-04-10T20:32:10.802Z,0
2023-04-10T20:38:33.729Z,0
2023-04-10T20:44:53.769Z,0
2023-04-10T20:51:16.824Z,0
2023-04-10T20:57:36.727Z,0
2023-04-10T21:03:59.845Z,0
2023-04-10T21:10:19.753Z,0
2023-04-10T21:16:42.864Z,0
2023-04-10T21:23:02.787Z,0
2023-04-10T21:29:25.790Z,0
2023-04-10T21:35:45.799Z,0
2023-04-10T21:42:08.785Z,0
2023-04-10T21:48:28.765Z,0
2023-04-10T21:54:51.855Z,0
2023-04-10T22:20:23.750Z,0
2023-04-10T22:26:43.776Z,0
2023-04-10T22:33:06.767Z,0
2023-04-10T22:39:26.814Z,0
2023-04-10T22:45:49.756Z,0
2023-04-10T22:52:09.815Z,0
2023-04-10T22:58:32.786Z,0
2023-04-10T23:04:52.852Z,0
2023-04-10T23:11:15.751Z,0
2023-04-10T23:17:35.840Z,0
2023-04-10T23:23:58.745Z,0
2023-04-10T23:30:18.817Z,0
2023-04-10T23:36:41.794Z,0
2023-04-10T23:43:01.831Z,0
2023-04-10T23:49:24.754Z,0
2023-04-10T23:55:44.787Z,0
